AAY24 KIAH-KLIT
Flight info
| Callsign | AAY24 |
|---|---|
| Flight time | 0h 57m |
| Altitude | 37000 |
| Route | INDIE8 TPAKK LIT |
| Aircraft | A320/M-SDE3FGHIRWY/LB1 |
Departure
| Time | 2026-04-20 01:15 |
|---|---|
| Airport | George Bush Intercontinental Airport (KIAH) |
Arrival
| Time | 2026-04-20 02:13 |
|---|---|
| Airport | Bill & Hillary Clinton National Airport/Adams Field (KLIT) |
| Time | Latitude | Longitude | Altitude | Speed | Heading |
|---|---|---|---|---|---|
| 2026-04-20 00:40 | 29.98841 | -95.34992 | 107 ft | 0 kts | 122° |
| 2026-04-20 00:47 | 29.98841 | -95.34993 | 107 ft | 0 kts | 122° |
| 2026-04-20 01:04 | 29.98843 | -95.34996 | 98 ft | 2 kts | 122° |
| 2026-04-20 01:04 | 29.98853 | -95.35013 | 107 ft | 2 kts | 122° |
| 2026-04-20 01:04 | 29.98862 | -95.35029 | 104 ft | 2 kts | 122° |
| 2026-04-20 01:04 | 29.98870 | -95.35044 | 104 ft | 0 kts | 125° |
| 2026-04-20 01:05 | 29.98872 | -95.35048 | 106 ft | 3 kts | 135° |
| 2026-04-20 01:05 | 29.98885 | -95.35062 | 107 ft | 2 kts | 154° |
| 2026-04-20 01:05 | 29.98900 | -95.35071 | 105 ft | 2 kts | 154° |
| 2026-04-20 01:05 | 29.98912 | -95.35076 | 105 ft | 2 kts | 170° |
| 2026-04-20 01:06 | 29.98918 | -95.35078 | 106 ft | 0 kts | 170° |
| 2026-04-20 01:08 | 29.98911 | -95.35078 | 106 ft | 6 kts | 179° |
| 2026-04-20 01:08 | 29.98877 | -95.35158 | 107 ft | 11 kts | 269° |
| 2026-04-20 01:08 | 29.98878 | -95.35207 | 107 ft | 0 kts | 270° |
| 2026-04-20 01:12 | 29.98898 | -95.35270 | 107 ft | 18 kts | 303° |
| 2026-04-20 01:12 | 29.98921 | -95.35406 | 107 ft | 17 kts | 269° |
| 2026-04-20 01:12 | 29.98897 | -95.35532 | 106 ft | 16 kts | 244° |
| 2026-04-20 01:13 | 29.98845 | -95.35644 | 107 ft | 11 kts | 242° |
| 2026-04-20 01:13 | 29.98829 | -95.35678 | 106 ft | 0 kts | 241° |
| 2026-04-20 01:14 | 29.98815 | -95.35706 | 108 ft | 11 kts | 241° |
| 2026-04-20 01:14 | 29.98759 | -95.35761 | 109 ft | 13 kts | 185° |
| 2026-04-20 01:14 | 29.98651 | -95.35704 | 108 ft | 31 kts | 152° |
| 2026-04-20 01:14 | 29.98236 | -95.35448 | 107 ft | 102 kts | 152° |
| 2026-04-20 01:15 | 29.97431 | -95.34958 | 107 ft | 157 kts | 152° |
| 2026-04-20 01:15 | 29.96435 | -95.34364 | 667 ft | 155 kts | 151° |
| 2026-04-20 01:15 | 29.95433 | -95.33934 | 1370 ft | 156 kts | 166° |
| 2026-04-20 01:15 | 29.94335 | -95.34044 | 1981 ft | 166 kts | 197° |
| 2026-04-20 01:16 | 29.93341 | -95.34883 | 2309 ft | 193 kts | 231° |
| 2026-04-20 01:16 | 29.92797 | -95.36389 | 2594 ft | 218 kts | 264° |
| 2026-04-20 01:16 | 29.92996 | -95.38201 | 2844 ft | 243 kts | 293° |
| 2026-04-20 01:16 | 29.93924 | -95.39922 | 3224 ft | 263 kts | 318° |
| 2026-04-20 01:17 | 29.95482 | -95.41035 | 3900 ft | 268 kts | 346° |
| 2026-04-20 01:17 | 29.97326 | -95.41153 | 4655 ft | 269 kts | 15° |
| 2026-04-20 01:17 | 29.99024 | -95.40270 | 5491 ft | 269 kts | 34° |
| 2026-04-20 01:17 | 30.00649 | -95.39146 | 6348 ft | 275 kts | 30° |
| 2026-04-20 01:18 | 30.02342 | -95.38085 | 7228 ft | 278 kts | 28° |
| 2026-04-20 01:18 | 30.04072 | -95.37047 | 8053 ft | 282 kts | 26° |
| 2026-04-20 01:18 | 30.05834 | -95.36028 | 8925 ft | 284 kts | 25° |
| 2026-04-20 01:18 | 30.07634 | -95.35010 | 9692 ft | 292 kts | 25° |
| 2026-04-20 01:19 | 30.09480 | -95.33967 | 10396 ft | 301 kts | 25° |
| 2026-04-20 01:19 | 30.11434 | -95.32848 | 10645 ft | 324 kts | 25° |
| 2026-04-20 01:19 | 30.13501 | -95.31652 | 11138 ft | 337 kts | 25° |
| 2026-04-20 01:19 | 30.15627 | -95.30410 | 11711 ft | 346 kts | 25° |
| 2026-04-20 01:20 | 30.17752 | -95.29144 | 12497 ft | 349 kts | 25° |
| 2026-04-20 01:20 | 30.19910 | -95.27835 | 13252 ft | 352 kts | 25° |
| 2026-04-20 01:20 | 30.22090 | -95.26505 | 13970 ft | 356 kts | 25° |
| 2026-04-20 01:20 | 30.24324 | -95.25146 | 14628 ft | 360 kts | 24° |
| 2026-04-20 01:21 | 30.26528 | -95.23815 | 15290 ft | 363 kts | 24° |
| 2026-04-20 01:21 | 30.28776 | -95.22480 | 15960 ft | 364 kts | 20° |
| 2026-04-20 01:21 | 30.31143 | -95.21458 | 16639 ft | 362 kts | 14° |
| 2026-04-20 01:21 | 30.33536 | -95.20533 | 17324 ft | 364 kts | 13° |
| 2026-04-20 01:22 | 30.35952 | -95.19600 | 17999 ft | 366 kts | 13° |
| 2026-04-20 01:22 | 30.38374 | -95.18663 | 18663 ft | 368 kts | 13° |
| 2026-04-20 01:22 | 30.40818 | -95.17715 | 19187 ft | 372 kts | 13° |
| 2026-04-20 01:22 | 30.43280 | -95.16760 | 19703 ft | 376 kts | 12° |
| 2026-04-20 01:23 | 30.45736 | -95.15630 | 20202 ft | 386 kts | 21° |
| 2026-04-20 01:23 | 30.48127 | -95.14156 | 20713 ft | 391 kts | 22° |
| 2026-04-20 01:23 | 30.50545 | -95.12659 | 21243 ft | 396 kts | 22° |
| 2026-04-20 01:23 | 30.52986 | -95.11145 | 21751 ft | 400 kts | 22° |
| 2026-04-20 01:24 | 30.54620 | -95.10130 | 22090 ft | 402 kts | 21° |
| 2026-04-20 01:24 | 30.57098 | -95.08592 | 22599 ft | 406 kts | 21° |
| 2026-04-20 01:24 | 30.59607 | -95.07040 | 23109 ft | 410 kts | 21° |
| 2026-04-20 01:24 | 30.62129 | -95.05459 | 23609 ft | 414 kts | 22° |
| 2026-04-20 01:25 | 30.64668 | -95.03834 | 24049 ft | 419 kts | 22° |
| 2026-04-20 01:25 | 30.67220 | -95.02182 | 24440 ft | 422 kts | 22° |
| 2026-04-20 01:25 | 30.69797 | -95.00504 | 24820 ft | 426 kts | 22° |
| 2026-04-20 01:25 | 30.72397 | -94.98814 | 25195 ft | 430 kts | 22° |
| 2026-04-20 01:26 | 30.75025 | -94.97111 | 25550 ft | 433 kts | 21° |
| 2026-04-20 01:26 | 30.77673 | -94.95401 | 25901 ft | 437 kts | 21° |
| 2026-04-20 01:26 | 30.80344 | -94.93681 | 26251 ft | 441 kts | 21° |
| 2026-04-20 01:26 | 30.82997 | -94.91974 | 26592 ft | 444 kts | 21° |
| 2026-04-20 01:27 | 30.85751 | -94.90201 | 26928 ft | 447 kts | 21° |
| 2026-04-20 01:27 | 30.88492 | -94.88436 | 27255 ft | 451 kts | 21° |
| 2026-04-20 01:27 | 30.91211 | -94.86679 | 27582 ft | 455 kts | 21° |
| 2026-04-20 01:27 | 30.93989 | -94.84879 | 27907 ft | 458 kts | 21° |
| 2026-04-20 01:28 | 30.96781 | -94.83067 | 28218 ft | 462 kts | 21° |
| 2026-04-20 01:28 | 30.99599 | -94.81236 | 28525 ft | 465 kts | 21° |
| 2026-04-20 01:28 | 31.02435 | -94.79394 | 28829 ft | 469 kts | 21° |
| 2026-04-20 01:28 | 31.05297 | -94.77538 | 29128 ft | 472 kts | 21° |
| 2026-04-20 01:29 | 31.08179 | -94.75673 | 29419 ft | 475 kts | 21° |
| 2026-04-20 01:29 | 31.11084 | -94.73792 | 29701 ft | 479 kts | 21° |
| 2026-04-20 01:29 | 31.14009 | -94.71894 | 29966 ft | 482 kts | 21° |
| 2026-04-20 01:29 | 31.16952 | -94.69980 | 30240 ft | 486 kts | 21° |
| 2026-04-20 01:30 | 31.19915 | -94.68050 | 30480 ft | 489 kts | 21° |
| 2026-04-20 01:30 | 31.22894 | -94.66107 | 30723 ft | 491 kts | 21° |
| 2026-04-20 01:30 | 31.25884 | -94.64157 | 30981 ft | 493 kts | 21° |
| 2026-04-20 01:30 | 31.28881 | -94.62199 | 31239 ft | 494 kts | 21° |
| 2026-04-20 01:31 | 31.31886 | -94.60232 | 31492 ft | 495 kts | 21° |
| 2026-04-20 01:31 | 31.34894 | -94.58259 | 31739 ft | 496 kts | 21° |
| 2026-04-20 01:31 | 31.37906 | -94.56284 | 32040 ft | 496 kts | 21° |
| 2026-04-20 01:31 | 31.40913 | -94.54311 | 32404 ft | 494 kts | 21° |
| 2026-04-20 01:32 | 31.43905 | -94.52347 | 32753 ft | 493 kts | 20° |
| 2026-04-20 01:32 | 31.46892 | -94.50389 | 33094 ft | 491 kts | 20° |
| 2026-04-20 01:32 | 31.49871 | -94.48431 | 33439 ft | 491 kts | 21° |
| 2026-04-20 01:32 | 31.52826 | -94.46435 | 33777 ft | 491 kts | 21° |
| 2026-04-20 01:33 | 31.55761 | -94.44399 | 34109 ft | 490 kts | 22° |
| 2026-04-20 01:33 | 31.58689 | -94.42334 | 34412 ft | 490 kts | 22° |
| 2026-04-20 01:33 | 31.61603 | -94.40268 | 34673 ft | 490 kts | 22° |
| 2026-04-20 01:33 | 31.64524 | -94.38202 | 34919 ft | 490 kts | 22° |
| 2026-04-20 01:34 | 31.67451 | -94.36144 | 35159 ft | 490 kts | 21° |
| 2026-04-20 01:34 | 31.70378 | -94.34094 | 35403 ft | 490 kts | 21° |
| 2026-04-20 01:34 | 31.73306 | -94.32050 | 35645 ft | 489 kts | 21° |
| 2026-04-20 01:34 | 31.74622 | -94.31133 | 35751 ft | 489 kts | 21° |
| 2026-04-20 01:35 | 31.77549 | -94.29092 | 35988 ft | 489 kts | 20° |
| 2026-04-20 01:35 | 31.80436 | -94.27076 | 36218 ft | 488 kts | 20° |
| 2026-04-20 01:35 | 31.83355 | -94.25033 | 36454 ft | 488 kts | 20° |
| 2026-04-20 01:35 | 31.86265 | -94.22993 | 36684 ft | 487 kts | 20° |
| 2026-04-20 01:36 | 31.89180 | -94.20943 | 36914 ft | 487 kts | 20° |
| 2026-04-20 01:36 | 31.92082 | -94.18898 | 37147 ft | 486 kts | 20° |
| 2026-04-20 01:36 | 31.94986 | -94.16855 | 37294 ft | 486 kts | 20° |
| 2026-04-20 01:36 | 31.97883 | -94.14817 | 37325 ft | 483 kts | 19° |
| 2026-04-20 01:37 | 32.03644 | -94.10763 | 37322 ft | 481 kts | 19° |
| 2026-04-20 01:37 | 32.09329 | -94.06762 | 37325 ft | 481 kts | 19° |
| 2026-04-20 01:38 | 32.15068 | -94.02714 | 37323 ft | 480 kts | 19° |
| 2026-04-20 01:38 | 32.20767 | -93.98681 | 37327 ft | 480 kts | 19° |
| 2026-04-20 01:39 | 32.26498 | -93.94617 | 37330 ft | 480 kts | 19° |
| 2026-04-20 01:39 | 32.32233 | -93.90555 | 37333 ft | 480 kts | 19° |
| 2026-04-20 01:40 | 32.37964 | -93.86486 | 37337 ft | 480 kts | 19° |
| 2026-04-20 01:40 | 32.43697 | -93.82413 | 37337 ft | 480 kts | 19° |
| 2026-04-20 01:41 | 32.49421 | -93.78327 | 37342 ft | 480 kts | 19° |
| 2026-04-20 01:41 | 32.55147 | -93.74235 | 37338 ft | 480 kts | 19° |
| 2026-04-20 01:42 | 32.60866 | -93.70147 | 37339 ft | 480 kts | 19° |
| 2026-04-20 01:42 | 32.66579 | -93.66057 | 37347 ft | 479 kts | 19° |
| 2026-04-20 01:43 | 32.72297 | -93.61961 | 37345 ft | 479 kts | 19° |
| 2026-04-20 01:43 | 32.77959 | -93.57890 | 37352 ft | 478 kts | 19° |
| 2026-04-20 01:44 | 32.83657 | -93.53799 | 37354 ft | 478 kts | 19° |
| 2026-04-20 01:44 | 32.89354 | -93.49705 | 37354 ft | 478 kts | 19° |
| 2026-04-20 01:45 | 32.95043 | -93.45616 | 37353 ft | 478 kts | 19° |
| 2026-04-20 01:45 | 33.00728 | -93.41517 | 37346 ft | 477 kts | 18° |
| 2026-04-20 01:46 | 33.06438 | -93.37550 | 37341 ft | 474 kts | 17° |
| 2026-04-20 01:46 | 33.12172 | -93.33675 | 37338 ft | 473 kts | 17° |
| 2026-04-20 01:47 | 33.17898 | -93.29783 | 37331 ft | 473 kts | 17° |
| 2026-04-20 01:47 | 33.23606 | -93.25864 | 37334 ft | 473 kts | 18° |
| 2026-04-20 01:48 | 33.29306 | -93.21929 | 37325 ft | 473 kts | 18° |
| 2026-04-20 01:48 | 33.35010 | -93.17985 | 37330 ft | 473 kts | 18° |
| 2026-04-20 01:49 | 33.37847 | -93.16021 | 36935 ft | 470 kts | 18° |
| 2026-04-20 01:49 | 33.40682 | -93.14060 | 36269 ft | 470 kts | 18° |
| 2026-04-20 01:49 | 33.43515 | -93.12105 | 35561 ft | 471 kts | 18° |
| 2026-04-20 01:49 | 33.46362 | -93.10143 | 34972 ft | 470 kts | 18° |
| 2026-04-20 01:50 | 33.49146 | -93.08219 | 34482 ft | 467 kts | 18° |
| 2026-04-20 01:50 | 33.51947 | -93.06277 | 33957 ft | 463 kts | 18° |
| 2026-04-20 01:50 | 33.54719 | -93.04350 | 33447 ft | 459 kts | 18° |
| 2026-04-20 01:50 | 33.57467 | -93.02439 | 32969 ft | 454 kts | 18° |
| 2026-04-20 01:51 | 33.60186 | -93.00547 | 32506 ft | 449 kts | 18° |
| 2026-04-20 01:51 | 33.62866 | -92.98681 | 32055 ft | 444 kts | 18° |
| 2026-04-20 01:51 | 33.65526 | -92.96830 | 31600 ft | 439 kts | 18° |
| 2026-04-20 01:51 | 33.68158 | -92.94999 | 31168 ft | 435 kts | 18° |
| 2026-04-20 01:52 | 33.70760 | -92.93188 | 30749 ft | 430 kts | 19° |
| 2026-04-20 01:52 | 33.73340 | -92.91393 | 30317 ft | 426 kts | 19° |
| 2026-04-20 01:52 | 33.75893 | -92.89615 | 29815 ft | 422 kts | 19° |
| 2026-04-20 01:52 | 33.78424 | -92.87849 | 29347 ft | 417 kts | 19° |
| 2026-04-20 01:53 | 33.80920 | -92.86105 | 28886 ft | 413 kts | 19° |
| 2026-04-20 01:53 | 33.83390 | -92.84375 | 28430 ft | 409 kts | 19° |
| 2026-04-20 01:53 | 33.85835 | -92.82665 | 27994 ft | 405 kts | 19° |
| 2026-04-20 01:53 | 33.88262 | -92.80971 | 27561 ft | 401 kts | 19° |
| 2026-04-20 01:54 | 33.90659 | -92.79293 | 27142 ft | 397 kts | 20° |
| 2026-04-20 01:54 | 33.93003 | -92.77650 | 26731 ft | 393 kts | 20° |
| 2026-04-20 01:54 | 33.95358 | -92.75997 | 26315 ft | 389 kts | 20° |
| 2026-04-20 01:54 | 33.97688 | -92.74357 | 25901 ft | 386 kts | 20° |
| 2026-04-20 01:55 | 33.99994 | -92.72732 | 25486 ft | 383 kts | 20° |
| 2026-04-20 01:55 | 34.02283 | -92.71123 | 25085 ft | 379 kts | 20° |
| 2026-04-20 01:55 | 34.04554 | -92.69532 | 24680 ft | 376 kts | 19° |
| 2026-04-20 01:55 | 34.06803 | -92.67957 | 24275 ft | 372 kts | 20° |
| 2026-04-20 01:56 | 34.09034 | -92.66392 | 23878 ft | 369 kts | 20° |
| 2026-04-20 01:56 | 34.11244 | -92.64839 | 23401 ft | 366 kts | 20° |
| 2026-04-20 01:56 | 34.13438 | -92.63292 | 22929 ft | 364 kts | 20° |
| 2026-04-20 01:56 | 34.15615 | -92.61759 | 22473 ft | 361 kts | 20° |
| 2026-04-20 01:57 | 34.17790 | -92.60228 | 21700 ft | 367 kts | 21° |
| 2026-04-20 01:57 | 34.20029 | -92.58659 | 20772 ft | 372 kts | 21° |
| 2026-04-20 01:57 | 34.22265 | -92.57082 | 19849 ft | 371 kts | 22° |
| 2026-04-20 01:57 | 34.24477 | -92.55513 | 19196 ft | 363 kts | 23° |
| 2026-04-20 01:58 | 34.26626 | -92.53983 | 18568 ft | 355 kts | 23° |
| 2026-04-20 01:58 | 34.28741 | -92.52481 | 17776 ft | 350 kts | 24° |
| 2026-04-20 01:58 | 34.30825 | -92.51004 | 17019 ft | 345 kts | 24° |
| 2026-04-20 01:58 | 34.32882 | -92.49543 | 16288 ft | 340 kts | 24° |
| 2026-04-20 01:59 | 34.34884 | -92.48123 | 15585 ft | 335 kts | 25° |
| 2026-04-20 01:59 | 34.36864 | -92.46719 | 15110 ft | 324 kts | 25° |
| 2026-04-20 01:59 | 34.38755 | -92.45379 | 14538 ft | 318 kts | 25° |
| 2026-04-20 01:59 | 34.40651 | -92.44035 | 13906 ft | 314 kts | 25° |
| 2026-04-20 02:00 | 34.42479 | -92.42611 | 13192 ft | 315 kts | 37° |
| 2026-04-20 02:00 | 34.43983 | -92.40679 | 12500 ft | 315 kts | 44° |
| 2026-04-20 02:00 | 34.45404 | -92.38709 | 12005 ft | 306 kts | 44° |
| 2026-04-20 02:00 | 34.46792 | -92.36781 | 11404 ft | 303 kts | 45° |
| 2026-04-20 02:01 | 34.48175 | -92.34865 | 10781 ft | 300 kts | 45° |
| 2026-04-20 02:01 | 34.49550 | -92.32972 | 10157 ft | 299 kts | 45° |
| 2026-04-20 02:01 | 34.50921 | -92.31095 | 9500 ft | 295 kts | 45° |
| 2026-04-20 02:01 | 34.52280 | -92.29251 | 8886 ft | 291 kts | 45° |
| 2026-04-20 02:02 | 34.53618 | -92.27450 | 8371 ft | 282 kts | 45° |
| 2026-04-20 02:02 | 34.54877 | -92.25753 | 8214 ft | 261 kts | 45° |
| 2026-04-20 02:02 | 34.56081 | -92.24131 | 7679 ft | 257 kts | 45° |
| 2026-04-20 02:02 | 34.57277 | -92.22535 | 7154 ft | 253 kts | 45° |
| 2026-04-20 02:03 | 34.58462 | -92.20972 | 6641 ft | 249 kts | 45° |
| 2026-04-20 02:03 | 34.59630 | -92.19448 | 6152 ft | 242 kts | 44° |
| 2026-04-20 02:03 | 34.60764 | -92.17978 | 5682 ft | 237 kts | 44° |
| 2026-04-20 02:03 | 34.61892 | -92.16526 | 5132 ft | 236 kts | 44° |
| 2026-04-20 02:04 | 34.63009 | -92.15099 | 4561 ft | 236 kts | 45° |
| 2026-04-20 02:04 | 34.64141 | -92.13669 | 4011 ft | 235 kts | 44° |
| 2026-04-20 02:04 | 34.65265 | -92.12262 | 3606 ft | 228 kts | 44° |
| 2026-04-20 02:04 | 34.66364 | -92.10897 | 3153 ft | 225 kts | 45° |
| 2026-04-20 02:05 | 34.67452 | -92.09558 | 3003 ft | 222 kts | 44° |
| 2026-04-20 02:05 | 34.68546 | -92.08217 | 3012 ft | 224 kts | 44° |
| 2026-04-20 02:05 | 34.69646 | -92.06868 | 3013 ft | 225 kts | 44° |
| 2026-04-20 02:05 | 34.70749 | -92.05516 | 3012 ft | 225 kts | 44° |
| 2026-04-20 02:06 | 34.71824 | -92.04195 | 3007 ft | 216 kts | 44° |
| 2026-04-20 02:06 | 34.72877 | -92.02898 | 3016 ft | 214 kts | 44° |
| 2026-04-20 02:06 | 34.73888 | -92.01652 | 3035 ft | 200 kts | 44° |
| 2026-04-20 02:06 | 34.74990 | -92.00671 | 3018 ft | 194 kts | 23° |
| 2026-04-20 02:07 | 34.76244 | -92.00256 | 3006 ft | 184 kts | 1° |
| 2026-04-20 02:07 | 34.77490 | -92.00253 | 3004 ft | 180 kts | 354° |
| 2026-04-20 02:07 | 34.78701 | -92.00526 | 2987 ft | 174 kts | 339° |
| 2026-04-20 02:07 | 34.79746 | -92.01192 | 2859 ft | 168 kts | 320° |
| 2026-04-20 02:08 | 34.80491 | -92.02236 | 2670 ft | 163 kts | 295° |
| 2026-04-20 02:08 | 34.80776 | -92.03550 | 2424 ft | 161 kts | 272° |
| 2026-04-20 02:08 | 34.80750 | -92.04889 | 2249 ft | 155 kts | 264° |
| 2026-04-20 02:08 | 34.80634 | -92.06162 | 2348 ft | 149 kts | 262° |
| 2026-04-20 02:09 | 34.80487 | -92.07393 | 2458 ft | 146 kts | 259° |
| 2026-04-20 02:09 | 34.80240 | -92.08594 | 2435 ft | 146 kts | 252° |
| 2026-04-20 02:09 | 34.79918 | -92.09759 | 2351 ft | 145 kts | 250° |
| 2026-04-20 02:09 | 34.79554 | -92.10894 | 2245 ft | 141 kts | 247° |
| 2026-04-20 02:10 | 34.79147 | -92.11953 | 2021 ft | 136 kts | 242° |
| 2026-04-20 02:10 | 34.78692 | -92.12942 | 1759 ft | 133 kts | 238° |
| 2026-04-20 02:10 | 34.78191 | -92.13876 | 1578 ft | 131 kts | 234° |
| 2026-04-20 02:10 | 34.77650 | -92.14763 | 1509 ft | 131 kts | 232° |
| 2026-04-20 02:11 | 34.77260 | -92.15325 | 1425 ft | 131 kts | 227° |
| 2026-04-20 02:11 | 34.76420 | -92.16375 | 1209 ft | 131 kts | 227° |
| 2026-04-20 02:11 | 34.75797 | -92.17187 | 1017 ft | 131 kts | 225° |
| 2026-04-20 02:11 | 34.75157 | -92.17988 | 770 ft | 132 kts | 226° |
| 2026-04-20 02:12 | 34.74539 | -92.18800 | 600 ft | 130 kts | 228° |
| 2026-04-20 02:12 | 34.74110 | -92.19341 | 471 ft | 131 kts | 226° |
| 2026-04-20 02:12 | 34.73496 | -92.20132 | 298 ft | 129 kts | 227° |
| 2026-04-20 02:12 | 34.72907 | -92.20889 | 258 ft | 106 kts | 226° |
| 2026-04-20 02:13 | 34.72608 | -92.21267 | 259 ft | 20 kts | 226° |
| 2026-04-20 02:13 | 34.72511 | -92.21391 | 260 ft | 26 kts | 230° |
| 2026-04-20 02:13 | 34.72428 | -92.21580 | 258 ft | 24 kts | 251° |
| 2026-04-20 02:13 | 34.72439 | -92.21696 | 258 ft | 13 kts | 335° |
| 2026-04-20 02:14 | 34.72503 | -92.21656 | 259 ft | 9 kts | 46° |
| 2026-04-20 02:14 | 34.72541 | -92.21609 | 260 ft | 7 kts | 45° |
| 2026-04-20 02:14 | 34.72588 | -92.21549 | 260 ft | 15 kts | 46° |
| 2026-04-20 02:14 | 34.72665 | -92.21452 | 259 ft | 16 kts | 46° |
| 2026-04-20 02:15 | 34.72740 | -92.21356 | 259 ft | 15 kts | 46° |
| 2026-04-20 02:15 | 34.72826 | -92.21309 | 257 ft | 14 kts | 337° |
| 2026-04-20 02:15 | 34.72874 | -92.21406 | 259 ft | 13 kts | 293° |
| 2026-04-20 02:15 | 34.72911 | -92.21505 | 262 ft | 12 kts | 294° |
| 2026-04-20 02:16 | 34.72938 | -92.21579 | 265 ft | 7 kts | 294° |
| 2026-04-20 02:16 | 34.72963 | -92.21648 | 267 ft | 14 kts | 294° |
| 2026-04-20 02:16 | 34.73006 | -92.21764 | 268 ft | 15 kts | 294° |
| 2026-04-20 02:16 | 34.73076 | -92.21783 | 267 ft | 12 kts | 20° |
| 2026-04-20 02:17 | 34.73144 | -92.21798 | 267 ft | 9 kts | 323° |
| 2026-04-20 02:17 | 34.73174 | -92.21852 | 268 ft | 6 kts | 296° |
| 2026-04-20 02:17 | 34.73187 | -92.21895 | 269 ft | 5 kts | 290° |
| 2026-04-20 02:17 | 34.73194 | -92.21927 | 269 ft | 3 kts | 278° |
| 2026-04-20 02:18 | 34.73184 | -92.21937 | 269 ft | 1 kts | 198° |
| 2026-04-20 02:18 | 34.73173 | -92.21938 | 269 ft | 4 kts | 187° |
| 2026-04-20 02:18 | 34.73124 | -92.21953 | 267 ft | 6 kts | 194° |
| 2026-04-20 02:18 | 34.73119 | -92.21954 | 267 ft | 0 kts | 194° |